createdAt,value
2022-12-25T00:02:00.119Z,14.11
2022-12-25T00:04:26.651Z,13.98
2022-12-25T00:06:53.335Z,14.00
2022-12-25T00:09:19.983Z,13.97
2022-12-25T00:11:46.552Z,14.07
2022-12-25T00:14:13.189Z,14.17
2022-12-25T00:16:39.816Z,14.18
2022-12-25T00:19:06.365Z,14.06
2022-12-25T00:21:33.484Z,14.21
2022-12-25T00:24:00.244Z,14.24
2022-12-25T00:26:27.805Z,14.43
2022-12-25T00:28:56.177Z,14.33
2022-12-25T00:31:24.514Z,14.15
2022-12-25T00:33:52.184Z,14.36
2022-12-25T00:36:21.025Z,14.35
2022-12-25T00:38:47.930Z,13.82
2022-12-25T00:41:17.463Z,14.17
2022-12-25T00:43:44.506Z,14.21
2022-12-25T00:46:13.137Z,14.12
2022-12-25T00:48:39.905Z,14.16
2022-12-25T00:51:08.630Z,14.04
2022-12-25T00:53:35.313Z,14.02
2022-12-25T00:56:06.434Z,14.04
2022-12-25T00:58:35.415Z,13.92
2022-12-25T01:01:02.971Z,13.96
2022-12-25T01:03:29.946Z,14.04
2022-12-25T01:06:01.980Z,14.11
2022-12-25T01:08:31.195Z,14.08
2022-12-25T01:11:00.956Z,14.07
2022-12-25T01:13:29.078Z,13.88
2022-12-25T01:15:55.924Z,14.23
2022-12-25T01:18:24.323Z,14.17
2022-12-25T01:20:51.678Z,14.31
2022-12-25T01:23:18.266Z,14.01
2022-12-25T01:25:44.833Z,13.92
2022-12-25T01:28:11.543Z,14.03
2022-12-25T01:30:38.169Z,14.33
2022-12-25T01:33:04.857Z,14.35
2022-12-25T01:35:31.589Z,14.26
2022-12-25T01:37:58.691Z,13.91
2022-12-25T01:40:25.207Z,14.07
2022-12-25T01:42:51.996Z,13.98
2022-12-25T01:45:36.816Z,13.80
2022-12-25T01:48:08.799Z,13.77
2022-12-25T01:50:39.162Z,13.87
2022-12-25T01:53:06.415Z,13.68
2022-12-25T01:55:34.099Z,13.59
2022-12-25T01:58:00.832Z,13.97
2022-12-25T02:03:16.434Z,14.03
2022-12-25T02:05:43.687Z,13.77
2022-12-25T02:08:12.654Z,13.79
2022-12-25T02:10:39.324Z,13.85
2022-12-25T02:13:07.946Z,13.86
2022-12-25T02:16:12.807Z,13.69
2022-12-25T02:18:53.552Z,13.64
2022-12-25T02:21:30.400Z,13.48
2022-12-25T02:24:34.556Z,13.42
2022-12-25T02:27:16.213Z,13.31
2022-12-25T02:30:07.027Z,13.38
2022-12-25T02:33:17.105Z,13.56
2022-12-25T02:35:47.497Z,14.02
2022-12-25T02:38:24.768Z,13.74
2022-12-25T02:40:59.193Z,13.84
2022-12-25T02:43:52.088Z,13.61
2022-12-25T02:46:42.510Z,13.85
2022-12-25T02:49:34.867Z,13.63
2022-12-25T02:52:27.368Z,13.68
2022-12-25T02:55:21.688Z,13.46
2022-12-25T02:58:09.350Z,13.38
2022-12-25T03:00:59.584Z,13.49
2022-12-25T03:03:49.360Z,13.51
2022-12-25T03:06:34.624Z,13.02
2022-12-25T03:09:23.024Z,13.31
2022-12-25T03:11:57.083Z,13.47
2022-12-25T03:14:42.499Z,13.61
2022-12-25T03:17:09.372Z,13.20
2022-12-25T03:19:54.320Z,13.51
2022-12-25T03:22:47.451Z,13.30
2022-12-25T03:25:33.397Z,13.41
2022-12-25T03:28:00.271Z,13.43
2022-12-25T03:30:51.470Z,13.76
2022-12-25T03:33:50.494Z,13.64
2022-12-25T03:36:28.688Z,13.83
2022-12-25T03:39:46.474Z,13.65
2022-12-25T03:42:34.210Z,13.85
2022-12-25T03:45:27.959Z,13.69
2022-12-25T03:48:15.338Z,13.59
2022-12-25T03:51:12.879Z,13.85
2022-12-25T03:54:08.384Z,13.62
2022-12-25T03:56:55.628Z,13.84
2022-12-25T03:59:42.698Z,13.36
2022-12-25T04:02:28.879Z,13.52
2022-12-25T04:05:14.188Z,13.49
2022-12-25T04:08:00.241Z,13.55
2022-12-25T04:10:45.734Z,13.49
2022-12-25T04:13:31.170Z,13.35
2022-12-25T04:16:16.086Z,13.32
2022-12-25T04:19:01.430Z,13.27
2022-12-25T04:21:46.297Z,13.22
2022-12-25T04:24:31.901Z,13.42
2022-12-25T04:27:16.956Z,13.14
2022-12-25T04:30:02.262Z,13.26
2022-12-25T04:32:47.260Z,13.44
2022-12-25T04:35:32.779Z,13.29
2022-12-25T04:37:59.457Z,13.28
2022-12-25T04:40:26.004Z,13.31
2022-12-25T04:42:53.155Z,13.27
2022-12-25T04:45:19.733Z,13.03
2022-12-25T04:47:46.333Z,13.07
2022-12-25T04:50:12.953Z,12.97
2022-12-25T04:52:41.103Z,12.85
2022-12-25T04:55:09.710Z,12.54
2022-12-25T04:57:36.359Z,12.83
2022-12-25T05:00:04.436Z,12.97
2022-12-25T05:02:31.765Z,12.85
2022-12-25T05:04:58.507Z,12.87
2022-12-25T05:07:25.036Z,13.21
2022-12-25T05:09:51.675Z,13.18
2022-12-25T05:12:18.375Z,12.68
2022-12-25T05:14:44.873Z,12.58
2022-12-25T05:17:11.458Z,12.49
2022-12-25T05:19:38.040Z,12.64
2022-12-25T05:22:04.551Z,12.63
2022-12-25T05:24:31.163Z,12.85
2022-12-25T05:26:57.852Z,13.07
2022-12-25T05:29:24.337Z,13.08
2022-12-25T05:31:51.077Z,13.17
2022-12-25T05:34:17.773Z,13.01
2022-12-25T05:36:44.286Z,13.01
2022-12-25T05:39:10.949Z,12.99
2022-12-25T05:41:37.577Z,12.98
2022-12-25T05:44:04.278Z,13.00
2022-12-25T05:46:30.869Z,12.97
2022-12-25T05:48:57.505Z,13.07
2022-12-25T05:51:25.198Z,13.20
2022-12-25T05:53:52.000Z,13.04
2022-12-25T05:56:18.617Z,13.14
2022-12-25T05:58:45.123Z,13.09
2022-12-25T06:01:19.408Z,12.90
2022-12-25T06:03:46.106Z,12.89
2022-12-25T06:06:13.214Z,12.89
2022-12-25T06:08:39.903Z,13.07
2022-12-25T06:11:07.620Z,13.01
2022-12-25T06:13:35.153Z,12.87
2022-12-25T06:16:06.101Z,13.01
2022-12-25T06:18:35.017Z,12.98
2022-12-25T06:21:01.579Z,13.02
2022-12-25T06:23:28.237Z,12.84
2022-12-25T06:25:54.806Z,12.79
2022-12-25T06:28:21.438Z,12.68
2022-12-25T06:30:48.026Z,12.79
2022-12-25T06:33:14.627Z,12.64
2022-12-25T06:35:41.197Z,12.98
2022-12-25T06:38:07.787Z,12.75
2022-12-25T06:40:35.120Z,12.42
2022-12-25T06:43:01.839Z,12.76
2022-12-25T06:45:28.478Z,12.52
2022-12-25T06:47:55.045Z,12.47
2022-12-25T06:50:21.759Z,12.69
2022-12-25T06:52:49.304Z,12.67
2022-12-25T06:55:15.798Z,12.85
2022-12-25T06:57:42.438Z,12.79
2022-12-25T07:00:09.578Z,12.60
2022-12-25T07:02:38.633Z,12.51
2022-12-25T07:05:05.651Z,12.57
2022-12-25T07:07:32.351Z,12.60
2022-12-25T07:09:58.870Z,12.53
2022-12-25T07:12:25.761Z,12.52
2022-12-25T07:14:55.204Z,12.46
2022-12-25T07:17:23.120Z,12.22
2022-12-25T07:19:50.173Z,12.39
2022-12-25T07:22:17.420Z,12.80
2022-12-25T07:24:44.218Z,12.86
2022-12-25T07:27:10.914Z,12.64
2022-12-25T07:29:37.469Z,12.88
2022-12-25T07:32:04.495Z,12.59
2022-12-25T07:34:31.091Z,12.48
2022-12-25T07:36:57.664Z,12.69
2022-12-25T07:39:24.190Z,12.49
2022-12-25T07:41:51.329Z,12.49
2022-12-25T07:44:18.094Z,12.44
2022-12-25T07:46:45.205Z,12.64
2022-12-25T07:49:12.331Z,12.64
2022-12-25T07:51:39.126Z,12.42
2022-12-25T07:54:05.849Z,12.35
2022-12-25T07:56:32.425Z,12.51
2022-12-25T07:58:59.050Z,12.41
2022-12-25T08:01:27.242Z,12.00
2022-12-25T08:03:56.927Z,12.04
2022-12-25T08:06:29.747Z,11.95
2022-12-25T08:09:01.915Z,12.04
2022-12-25T08:11:28.419Z,12.41
2022-12-25T08:13:54.995Z,12.40
2022-12-25T08:16:21.710Z,12.42
2022-12-25T08:18:48.483Z,12.07
2022-12-25T08:21:15.849Z,12.02
2022-12-25T08:23:44.558Z,12.26
2022-12-25T08:26:13.817Z,12.58
2022-12-25T08:28:40.977Z,12.34
2022-12-25T08:31:14.103Z,12.33
2022-12-25T08:33:40.949Z,12.34
2022-12-25T08:36:09.702Z,12.23
2022-12-25T08:38:37.057Z,12.36
2022-12-25T08:41:04.229Z,12.36
2022-12-25T08:43:31.159Z,12.77
2022-12-25T08:45:57.678Z,12.68
2022-12-25T08:48:24.423Z,12.59
2022-12-25T08:50:53.457Z,12.70
2022-12-25T08:53:20.573Z,12.65
2022-12-25T08:55:47.719Z,12.78
2022-12-25T08:58:14.748Z,12.90
2022-12-25T09:00:41.351Z,12.79
2022-12-25T09:03:08.149Z,12.84
2022-12-25T09:05:35.868Z,12.91
2022-12-25T09:08:02.399Z,13.02
2022-12-25T09:10:29.175Z,13.24
2022-12-25T09:12:55.744Z,13.25
2022-12-25T09:15:22.273Z,13.10
2022-12-25T09:17:48.933Z,13.10
2022-12-25T09:20:15.854Z,13.21
2022-12-25T09:22:42.439Z,13.36
2022-12-25T09:25:09.635Z,13.27
2022-12-25T09:27:36.260Z,13.38
2022-12-25T09:30:03.150Z,13.30
2022-12-25T09:32:30.008Z,13.14
2022-12-25T09:34:56.594Z,13.12
2022-12-25T09:37:23.114Z,13.35
2022-12-25T09:39:49.714Z,13.23
2022-12-25T09:42:25.744Z,13.55
2022-12-25T09:44:59.243Z,13.82
2022-12-25T09:47:30.748Z,13.90
2022-12-25T09:50:21.500Z,13.79
2022-12-25T09:53:07.424Z,13.95
2022-12-25T09:55:38.718Z,14.06
2022-12-25T09:58:12.838Z,14.18
2022-12-25T10:00:43.370Z,14.33
2022-12-25T10:03:31.642Z,14.18
2022-12-25T10:06:26.353Z,14.18
2022-12-25T10:09:03.776Z,14.22
2022-12-25T10:11:45.345Z,14.19
2022-12-25T10:14:18.204Z,14.22
2022-12-25T10:16:47.697Z,14.25
2022-12-25T10:19:27.599Z,14.23
2022-12-25T10:21:58.403Z,14.14
2022-12-25T10:24:50.918Z,14.12
2022-12-25T10:27:21.066Z,14.18
2022-12-25T10:29:52.242Z,14.34
2022-12-25T10:32:18.751Z,14.58
2022-12-25T10:34:45.511Z,14.36
2022-12-25T10:37:12.559Z,14.31
2022-12-25T10:39:45.862Z,14.66
2022-12-25T10:42:29.655Z,14.53
2022-12-25T10:45:02.139Z,14.33
2022-12-25T10:47:33.244Z,14.55
2022-12-25T10:50:01.994Z,14.74
2022-12-25T10:52:29.344Z,14.70
2022-12-25T10:54:56.589Z,15.08
2022-12-25T10:57:25.389Z,15.04
2022-12-25T10:59:57.734Z,15.00
2022-12-25T11:02:39.613Z,15.04
2022-12-25T11:05:10.065Z,15.41
2022-12-25T11:07:51.329Z,15.34
2022-12-25T11:10:17.992Z,15.30
2022-12-25T11:12:46.100Z,15.32
2022-12-25T11:15:42.909Z,15.48
2022-12-25T11:18:27.095Z,15.51
2022-12-25T11:20:55.251Z,15.42
2022-12-25T11:23:23.963Z,15.53
2022-12-25T11:26:02.451Z,15.72
2022-12-25T11:28:31.366Z,15.72
2022-12-25T11:31:07.103Z,15.92
2022-12-25T11:33:45.258Z,15.86
2022-12-25T11:36:32.369Z,16.01
2022-12-25T11:39:09.678Z,16.01
2022-12-25T11:41:37.913Z,16.08
2022-12-25T11:44:19.199Z,16.26
2022-12-25T11:46:50.401Z,16.21
2022-12-25T11:49:20.030Z,16.33
2022-12-25T11:51:51.704Z,16.53
2022-12-25T11:54:27.723Z,16.69
2022-12-25T11:56:57.780Z,16.93
2022-12-25T11:59:30.371Z,17.07
2022-12-25T12:02:38.528Z,17.23
2022-12-25T12:05:15.295Z,17.49
2022-12-25T12:07:53.501Z,17.44
2022-12-25T12:10:28.197Z,17.66
2022-12-25T12:13:16.517Z,17.62
2022-12-25T12:15:47.316Z,17.45
2022-12-25T12:18:19.968Z,17.77
2022-12-25T12:21:05.732Z,17.76
2022-12-25T12:23:48.980Z,17.77
2022-12-25T12:26:21.167Z,17.54
2022-12-25T12:28:48.796Z,17.69
2022-12-25T12:31:15.966Z,17.86
2022-12-25T12:33:56.257Z,17.77
2022-12-25T12:36:35.662Z,17.76
2022-12-25T12:39:05.214Z,17.80
2022-12-25T12:41:45.923Z,17.77
2022-12-25T12:44:14.386Z,17.96
2022-12-25T12:46:58.834Z,18.10
2022-12-25T12:49:28.654Z,17.98
2022-12-25T12:52:10.599Z,18.15
2022-12-25T12:55:13.169Z,18.22
2022-12-25T12:57:41.216Z,18.15
2022-12-25T13:00:21.299Z,18.18
2022-12-25T13:02:57.291Z,18.31
2022-12-25T13:05:46.171Z,18.36
2022-12-25T13:08:31.587Z,18.09
2022-12-25T13:11:06.799Z,18.18
2022-12-25T13:13:40.524Z,18.13
2022-12-25T13:16:16.633Z,18.18
2022-12-25T13:18:43.532Z,18.23
2022-12-25T13:21:19.142Z,18.15
2022-12-25T13:23:45.745Z,18.27
2022-12-25T13:26:15.062Z,18.36
2022-12-25T13:28:41.682Z,18.39
2022-12-25T13:31:21.621Z,18.54
2022-12-25T13:34:23.468Z,18.21
2022-12-25T13:36:50.361Z,18.28
2022-12-25T13:39:18.080Z,18.36
2022-12-25T13:42:06.362Z,18.26
2022-12-25T13:44:44.216Z,18.39
2022-12-25T13:47:21.980Z,18.35
2022-12-25T13:49:49.700Z,18.18
2022-12-25T13:52:23.802Z,18.35
2022-12-25T13:55:16.501Z,18.26
2022-12-25T13:57:50.479Z,18.26
2022-12-25T14:00:20.935Z,18.23
2022-12-25T14:02:47.962Z,18.22
2022-12-25T14:05:43.241Z,18.30
2022-12-25T14:08:22.047Z,18.26
2022-12-25T14:10:51.913Z,18.19
2022-12-25T14:13:20.943Z,17.97
2022-12-25T14:15:51.025Z,18.11
2022-12-25T14:18:19.261Z,18.13
2022-12-25T14:21:05.305Z,18.07
2022-12-25T14:23:42.819Z,18.03
2022-12-25T14:26:31.040Z,18.04
2022-12-25T14:29:15.566Z,18.14
2022-12-25T14:31:44.399Z,18.21
2022-12-25T14:34:17.001Z,18.05
2022-12-25T14:36:43.694Z,18.16
2022-12-25T14:39:36.508Z,17.98
2022-12-25T14:42:24.645Z,17.90
2022-12-25T14:45:06.913Z,17.84
2022-12-25T14:47:49.685Z,18.03
2022-12-25T14:50:37.417Z,18.07
2022-12-25T14:53:05.715Z,17.97
2022-12-25T14:55:32.494Z,17.94
2022-12-25T14:58:06.018Z,17.93
2022-12-25T15:00:38.600Z,17.86
2022-12-25T15:03:17.343Z,18.02
2022-12-25T15:05:44.053Z,18.04
2022-12-25T15:08:13.462Z,18.17
2022-12-25T15:13:27.893Z,17.98
2022-12-25T15:16:02.356Z,18.01
2022-12-25T15:18:33.080Z,17.97
2022-12-25T15:20:59.986Z,17.84
2022-12-25T15:23:26.768Z,17.81
2022-12-25T15:25:53.546Z,17.79
2022-12-25T15:28:20.786Z,17.77
2022-12-25T15:30:48.087Z,17.93
2022-12-25T15:33:16.532Z,17.64
2022-12-25T15:35:44.437Z,17.66
2022-12-25T15:38:12.891Z,17.61
2022-12-25T15:40:39.851Z,17.41
2022-12-25T15:43:14.589Z,17.40
2022-12-25T15:45:47.712Z,17.47
2022-12-25T15:48:14.334Z,17.29
2022-12-25T15:50:40.904Z,17.27
2022-12-25T15:53:07.768Z,17.10
2022-12-25T15:55:34.681Z,17.15
2022-12-25T15:58:01.223Z,17.20
2022-12-25T16:00:27.975Z,17.09
2022-12-25T16:02:54.715Z,17.11
2022-12-25T16:05:22.157Z,17.07
2022-12-25T16:07:49.272Z,17.01
2022-12-25T16:10:19.198Z,16.90
2022-12-25T16:12:46.600Z,17.18
2022-12-25T16:15:15.115Z,17.12
2022-12-25T16:17:41.994Z,16.89
2022-12-25T16:20:09.730Z,16.90
2022-12-25T16:22:40.175Z,16.84
2022-12-25T16:25:13.364Z,16.93
2022-12-25T16:27:39.938Z,16.75
2022-12-25T16:30:07.314Z,16.74
2022-12-25T16:32:33.871Z,16.72
2022-12-25T16:35:00.468Z,16.70
2022-12-25T16:37:27.771Z,16.56
2022-12-25T16:39:54.265Z,16.49
2022-12-25T16:42:21.080Z,16.42
2022-12-25T16:44:47.765Z,16.29
2022-12-25T16:47:14.298Z,16.30
2022-12-25T16:49:41.725Z,16.24
2022-12-25T16:52:08.326Z,16.20
2022-12-25T16:54:34.855Z,16.05
2022-12-25T16:57:01.412Z,16.14
2022-12-25T16:59:29.112Z,16.18
2022-12-25T17:01:55.743Z,16.22
2022-12-25T17:04:22.508Z,16.31
2022-12-25T17:06:50.379Z,16.15
2022-12-25T17:09:16.919Z,15.98
2022-12-25T17:11:43.466Z,15.77
2022-12-25T17:14:10.303Z,15.69
2022-12-25T17:16:38.088Z,15.66
2022-12-25T17:19:16.120Z,15.68
2022-12-25T17:21:42.647Z,15.51
2022-12-25T17:24:09.785Z,15.50
2022-12-25T17:26:36.638Z,15.50
2022-12-25T17:29:03.392Z,15.51
2022-12-25T17:31:30.685Z,15.07
2022-12-25T17:33:57.868Z,15.40
2022-12-25T17:36:24.916Z,15.11
2022-12-25T17:38:51.663Z,15.10
2022-12-25T17:41:20.149Z,14.96
2022-12-25T17:43:47.808Z,14.93
2022-12-25T17:46:32.834Z,14.94
2022-12-25T17:49:01.121Z,15.01
2022-12-25T17:51:31.849Z,15.09
2022-12-25T17:54:03.272Z,15.02
2022-12-25T17:56:31.000Z,15.00
2022-12-25T17:59:00.348Z,14.97
2022-12-25T18:01:28.817Z,14.98
2022-12-25T18:03:55.999Z,14.89
2022-12-25T18:06:25.145Z,15.06
2022-12-25T18:08:51.787Z,15.00
2022-12-25T18:11:21.854Z,14.84
2022-12-25T18:13:51.850Z,14.94
2022-12-25T18:16:21.279Z,14.84
2022-12-25T18:18:52.255Z,14.84
2022-12-25T18:21:21.642Z,14.76
2022-12-25T18:23:48.676Z,14.97
2022-12-25T18:26:15.450Z,14.99
2022-12-25T18:28:42.767Z,14.61
2022-12-25T18:31:27.824Z,14.63
2022-12-25T18:33:54.620Z,14.59
2022-12-25T18:36:23.951Z,14.50
2022-12-25T18:38:52.104Z,14.48
2022-12-25T18:41:18.886Z,14.60
2022-12-25T18:43:52.683Z,14.40
2022-12-25T18:46:26.220Z,14.27
2022-12-25T18:48:54.740Z,14.35
2022-12-25T18:51:21.303Z,14.43
2022-12-25T18:53:47.954Z,14.33
2022-12-25T18:56:17.312Z,14.19
2022-12-25T18:58:45.154Z,14.14
2022-12-25T19:01:18.058Z,13.91
2022-12-25T19:03:45.818Z,14.21
2022-12-25T19:06:23.943Z,14.08
2022-12-25T19:08:50.963Z,14.04
2022-12-25T19:11:18.458Z,14.03
2022-12-25T19:13:45.904Z,13.95
2022-12-25T19:16:12.891Z,14.32
2022-12-25T19:18:40.063Z,14.13
2022-12-25T19:21:09.305Z,13.97
2022-12-25T19:23:36.657Z,13.91
2022-12-25T19:26:08.373Z,13.59
2022-12-25T19:28:35.774Z,13.76
2022-12-25T19:31:03.300Z,13.79
2022-12-25T19:33:34.030Z,13.74
2022-12-25T19:36:02.174Z,13.70
2022-12-25T19:38:28.849Z,13.70
2022-12-25T19:41:01.380Z,13.87
2022-12-25T19:43:29.833Z,13.76
2022-12-25T19:45:56.923Z,13.78
2022-12-25T19:48:24.144Z,13.57
2022-12-25T19:50:51.281Z,13.56
2022-12-25T19:53:18.442Z,13.35
2022-12-25T19:55:45.527Z,13.27
2022-12-25T19:58:12.400Z,13.45
2022-12-25T20:00:40.414Z,13.49
2022-12-25T20:03:07.521Z,13.39
2022-12-25T20:05:34.514Z,13.49
2022-12-25T20:08:01.406Z,13.34
2022-12-25T20:10:27.995Z,13.15
2022-12-25T20:12:54.576Z,13.07
2022-12-25T20:15:21.223Z,13.04
2022-12-25T20:17:47.764Z,13.13
2022-12-25T20:20:14.516Z,13.01
2022-12-25T20:22:41.136Z,12.93
2022-12-25T20:25:09.799Z,13.14
2022-12-25T20:27:36.577Z,12.97
2022-12-25T20:30:03.534Z,13.00
2022-12-25T20:32:30.055Z,13.09
2022-12-25T20:34:56.737Z,13.11
2022-12-25T20:37:23.339Z,12.89
2022-12-25T20:39:49.838Z,13.07
2022-12-25T20:42:16.453Z,12.87
2022-12-25T20:44:43.054Z,12.83
2022-12-25T20:47:09.989Z,12.89
2022-12-25T20:49:36.569Z,12.79
2022-12-25T20:52:05.746Z,12.80
2022-12-25T20:54:32.746Z,12.69
2022-12-25T20:56:59.611Z,12.72
2022-12-25T20:59:27.211Z,12.65
2022-12-25T21:01:56.673Z,12.32
2022-12-25T21:04:23.530Z,12.64
2022-12-25T21:06:50.193Z,12.54
2022-12-25T21:09:16.767Z,12.79
2022-12-25T21:11:43.434Z,12.62
2022-12-25T21:14:10.055Z,12.73
2022-12-25T21:16:36.725Z,12.85
2022-12-25T21:19:03.544Z,12.81
2022-12-25T21:21:30.961Z,12.74
2022-12-25T21:23:57.657Z,12.42
2022-12-25T21:26:29.238Z,12.40
2022-12-25T21:29:00.212Z,12.46
2022-12-25T21:31:27.379Z,12.17
2022-12-25T21:33:55.457Z,12.03
2022-12-25T21:36:34.309Z,12.26
2022-12-25T21:39:11.059Z,12.23
2022-12-25T21:41:38.860Z,12.32
2022-12-25T21:44:06.338Z,12.39
2022-12-25T21:46:33.059Z,12.37
2022-12-25T21:49:00.633Z,12.49
2022-12-25T21:51:48.999Z,12.28
2022-12-25T21:54:16.771Z,12.09
2022-12-25T21:56:45.666Z,12.11
2022-12-25T21:59:15.620Z,12.02
2022-12-25T22:01:43.658Z,11.99
2022-12-25T22:04:11.126Z,12.07
2022-12-25T22:06:55.976Z,11.87
2022-12-25T22:09:23.471Z,12.05
2022-12-25T22:12:08.897Z,12.04
2022-12-25T22:14:54.740Z,12.01
2022-12-25T22:17:43.185Z,11.86
2022-12-25T22:20:13.587Z,11.85
2022-12-25T22:22:40.151Z,12.04
2022-12-25T22:25:07.164Z,12.11
2022-12-25T22:27:36.031Z,12.07
2022-12-25T22:30:02.656Z,12.27
2022-12-25T22:32:29.466Z,12.11
2022-12-25T22:34:56.223Z,11.82
2022-12-25T22:37:23.074Z,11.98
2022-12-25T22:39:49.875Z,11.86
2022-12-25T22:42:16.582Z,11.90
2022-12-25T22:44:43.490Z,11.76
2022-12-25T22:47:10.216Z,11.58
2022-12-25T22:49:36.833Z,11.73
2022-12-25T22:52:03.555Z,11.88
2022-12-25T22:54:31.682Z,12.02
2022-12-25T22:56:59.355Z,11.94
2022-12-25T22:59:26.190Z,11.70
2022-12-25T23:01:53.255Z,11.68
2022-12-25T23:04:20.116Z,11.72
2022-12-25T23:06:47.039Z,11.80
2022-12-25T23:09:22.106Z,11.81
2022-12-25T23:11:50.860Z,11.69
2022-12-25T23:14:35.960Z,11.71
2022-12-25T23:17:02.573Z,11.90
2022-12-25T23:19:47.804Z,11.86
2022-12-25T23:22:32.982Z,11.97
2022-12-25T23:25:18.131Z,11.67
2022-12-25T23:27:45.524Z,11.82
2022-12-25T23:30:16.247Z,11.73
2022-12-25T23:32:44.101Z,11.65
2022-12-25T23:35:11.585Z,11.71
2022-12-25T23:37:38.116Z,11.64
2022-12-25T23:40:05.378Z,11.43
2022-12-25T23:42:32.015Z,11.35
2022-12-25T23:44:58.575Z,11.21
2022-12-25T23:47:25.235Z,11.19
2022-12-25T23:49:51.811Z,11.01
2022-12-25T23:52:18.330Z,11.12
2022-12-25T23:54:45.007Z,10.94
2022-12-25T23:57:11.700Z,10.89
2022-12-25T23:59:38.375Z,11.13
